Terminal Aerodrome Forecast
Issued by NWS

Home | Current Version | Previous Version | Text Only | Print | Product List | Glossary On
Versions: 1 2 3 4 5 6 7 8 9 10 11 12 13 14 15 16 17 18 19 20 21 22 23 24 25 26 27 28 29 30 31 32 33 34 35 36 37 38 39 40 41 42
992
FTAK31 PANC 122008 AAA
TAFADQ
TAF AMD
PADQ 122008Z 1220/1318 30012G19KT P6SM -RA SCT015 OVC025
     FM130600 19005KT P6SM -SHRA BKN020 OVC035
     FM131200 08015KT 5SM -RA SCT007 OVC015=

USA.gov is the U.S. government's official web portal to all federal, state and local government web resources and services.